createdAt,value
2017-09-17T00:01:04.652Z,89.04
2017-09-17T00:03:33.717Z,89.21
2017-09-17T00:06:02.012Z,89.36
2017-09-17T00:08:30.316Z,89.38
2017-09-17T00:10:58.604Z,89.43
2017-09-17T00:13:27.661Z,89.34
2017-09-17T00:15:55.951Z,89.42
2017-09-17T00:18:24.243Z,89.56
2017-09-17T00:20:52.544Z,89.59
2017-09-17T00:23:21.604Z,89.57
2017-09-17T00:25:49.891Z,89.60
2017-09-17T00:28:18.191Z,89.59
2017-09-17T00:30:46.484Z,89.67
2017-09-17T00:33:15.534Z,89.83
2017-09-17T00:35:43.839Z,89.92
2017-09-17T00:38:12.147Z,90.03
2017-09-17T00:40:41.200Z,89.98
2017-09-17T00:43:09.508Z,90.05
2017-09-17T00:45:37.798Z,90.16
2017-09-17T00:48:06.091Z,90.21
2017-09-17T00:50:35.156Z,90.29
2017-09-17T00:53:03.443Z,90.34
2017-09-17T00:55:31.733Z,90.37
2017-09-17T00:58:00.036Z,90.45
2017-09-17T01:00:29.100Z,90.52
2017-09-17T01:02:57.407Z,90.58
2017-09-17T01:05:25.738Z,90.58
2017-09-17T01:07:54.019Z,90.64
2017-09-17T01:10:22.307Z,90.75
2017-09-17T01:12:50.704Z,90.76
2017-09-17T01:15:18.973Z,90.80
2017-09-17T01:17:47.276Z,90.88
2017-09-17T01:20:15.564Z,90.87
2017-09-17T01:22:43.852Z,90.90
2017-09-17T01:25:12.189Z,90.85
2017-09-17T01:27:40.511Z,90.81
2017-09-17T01:30:08.800Z,90.86
2017-09-17T01:32:37.104Z,90.92
2017-09-17T01:35:05.410Z,90.98
2017-09-17T01:37:33.694Z,91.04
2017-09-17T01:40:01.998Z,91.00
2017-09-17T01:42:31.075Z,91.10
2017-09-17T01:44:59.373Z,91.27
2017-09-17T01:47:27.687Z,91.50
2017-09-17T01:49:55.970Z,91.49
2017-09-17T01:52:24.252Z,91.46
2017-09-17T01:54:52.563Z,91.49
2017-09-17T01:57:20.851Z,91.49
2017-09-17T01:59:49.141Z,91.43
2017-09-17T02:02:17.431Z,91.37
2017-09-17T02:04:45.727Z,91.35
2017-09-17T02:07:14.075Z,91.41
2017-09-17T02:09:42.386Z,91.42
2017-09-17T02:12:11.439Z,91.58
2017-09-17T02:14:40.484Z,91.62
2017-09-17T02:17:08.775Z,91.75
2017-09-17T02:19:37.067Z,91.87
2017-09-17T02:22:05.373Z,92.05
2017-09-17T02:24:34.419Z,92.17
2017-09-17T02:27:02.695Z,92.25
2017-09-17T02:29:31.004Z,92.28
2017-09-17T02:31:59.292Z,92.33
2017-09-17T02:34:27.598Z,92.37
2017-09-17T02:36:56.678Z,92.40
2017-09-17T02:39:24.973Z,92.26
2017-09-17T02:41:54.019Z,92.13
2017-09-17T02:44:22.331Z,92.13
2017-09-17T02:46:50.626Z,92.22
2017-09-17T02:49:19.686Z,92.28
2017-09-17T02:51:47.994Z,92.39
2017-09-17T02:54:16.284Z,92.47
2017-09-17T02:56:44.582Z,92.57
2017-09-17T02:59:13.669Z,92.57
2017-09-17T03:01:41.957Z,92.57
2017-09-17T03:04:11.037Z,92.58
2017-09-17T03:06:39.344Z,92.57
2017-09-17T03:09:08.404Z,92.61
2017-09-17T03:11:36.687Z,92.56
2017-09-17T03:14:04.990Z,92.59
2017-09-17T03:16:33.285Z,92.63
2017-09-17T03:19:02.371Z,92.52
2017-09-17T03:21:30.665Z,92.50
2017-09-17T03:23:59.729Z,92.49
2017-09-17T03:26:28.050Z,92.56
2017-09-17T03:28:57.098Z,92.57
2017-09-17T03:31:25.390Z,92.55
2017-09-17T03:33:53.680Z,92.57
2017-09-17T03:36:21.980Z,92.51
2017-09-17T03:38:51.041Z,92.52
2017-09-17T03:41:19.329Z,92.64
2017-09-17T03:43:47.633Z,92.73
2017-09-17T03:46:15.915Z,92.82
2017-09-17T03:48:44.972Z,92.77
2017-09-17T03:51:13.260Z,92.81
2017-09-17T03:53:41.550Z,92.76
2017-09-17T03:56:09.848Z,92.75
2017-09-17T03:58:38.154Z,92.79
2017-09-17T04:01:07.211Z,92.89
2017-09-17T04:03:35.511Z,92.88
2017-09-17T04:06:03.808Z,92.92
2017-09-17T04:08:32.864Z,93.01
2017-09-17T04:11:01.151Z,93.00
2017-09-17T04:13:29.439Z,93.04
2017-09-17T04:15:57.722Z,93.08
2017-09-17T04:18:26.003Z,93.10
2017-09-17T04:20:54.308Z,93.04
2017-09-17T04:23:23.436Z,92.97
2017-09-17T04:25:51.720Z,92.95
2017-09-17T04:28:20.019Z,92.93
2017-09-17T04:30:48.315Z,92.91
2017-09-17T04:33:16.607Z,92.87
2017-09-17T04:35:44.895Z,92.82
2017-09-17T04:38:13.194Z,92.76
2017-09-17T04:40:42.260Z,92.76
2017-09-17T04:43:10.551Z,92.78
2017-09-17T04:45:39.620Z,92.84
2017-09-17T04:48:07.912Z,92.87
2017-09-17T04:50:36.199Z,92.86
2017-09-17T04:53:04.507Z,92.82
2017-09-17T04:55:32.799Z,92.84
2017-09-17T04:58:01.851Z,92.76
2017-09-17T05:00:30.148Z,92.72
2017-09-17T05:02:58.458Z,92.73
2017-09-17T05:05:27.536Z,92.67
2017-09-17T05:07:55.830Z,92.72
2017-09-17T05:10:24.116Z,92.71
2017-09-17T05:12:53.189Z,92.69
2017-09-17T05:15:21.487Z,92.73
2017-09-17T05:17:49.771Z,92.68
2017-09-17T05:20:18.839Z,92.61
2017-09-17T05:22:47.131Z,92.62
2017-09-17T05:25:15.436Z,92.65
2017-09-17T05:27:44.491Z,92.53
2017-09-17T05:30:12.785Z,92.46
2017-09-17T05:32:41.099Z,92.45
2017-09-17T05:35:10.159Z,92.37
2017-09-17T05:37:38.468Z,92.23
2017-09-17T05:40:06.774Z,92.07
2017-09-17T05:42:35.829Z,91.94
2017-09-17T05:45:04.129Z,91.82
2017-09-17T05:47:32.435Z,91.69
2017-09-17T05:50:01.490Z,91.60
2017-09-17T05:52:29.789Z,91.60
2017-09-17T05:54:58.122Z,91.53
2017-09-17T05:57:26.413Z,91.42
2017-09-17T05:59:54.706Z,91.30
2017-09-17T06:02:23.013Z,91.10
2017-09-17T06:04:51.306Z,90.86
2017-09-17T06:07:20.356Z,90.83
2017-09-17T06:09:48.667Z,90.71
2017-09-17T06:12:16.962Z,90.52
2017-09-17T06:14:45.263Z,90.29
2017-09-17T06:17:14.330Z,90.19
2017-09-17T06:19:42.614Z,90.16
2017-09-17T06:22:10.908Z,89.93
2017-09-17T06:24:39.197Z,89.73
2017-09-17T06:27:08.252Z,89.60
2017-09-17T06:29:36.572Z,89.47
2017-09-17T06:32:05.633Z,89.20
2017-09-17T06:34:33.911Z,88.95
2017-09-17T06:37:02.226Z,88.53
2017-09-17T06:39:30.524Z,88.20
2017-09-17T06:41:59.579Z,88.00
2017-09-17T06:44:27.884Z,87.82
2017-09-17T06:46:56.961Z,87.29
2017-09-17T06:49:25.253Z,86.87
2017-09-17T06:51:53.550Z,86.42
2017-09-17T06:54:22.655Z,85.95
2017-09-17T06:56:51.710Z,85.83
2017-09-17T06:59:20.007Z,85.46
2017-09-17T07:01:48.305Z,84.84
2017-09-17T07:04:16.591Z,84.23
2017-09-17T07:06:44.875Z,83.76
2017-09-17T07:09:13.933Z,83.01
2017-09-17T07:11:42.245Z,82.58
2017-09-17T07:14:10.530Z,82.34
2017-09-17T07:16:38.834Z,82.19
2017-09-17T07:19:07.904Z,81.96
2017-09-17T07:21:36.195Z,81.90
2017-09-17T07:24:05.281Z,81.28
2017-09-17T07:26:33.590Z,81.02
2017-09-17T07:29:02.657Z,80.49
2017-09-17T07:31:30.951Z,80.01
2017-09-17T07:33:59.254Z,79.71
2017-09-17T07:36:28.311Z,79.24
2017-09-17T07:38:56.602Z,78.70
2017-09-17T07:41:24.896Z,78.50
2017-09-17T07:43:53.944Z,78.40
2017-09-17T07:46:22.246Z,78.56
2017-09-17T07:48:50.537Z,78.54
2017-09-17T07:51:18.827Z,78.04
2017-09-17T07:53:47.114Z,77.46
2017-09-17T07:56:15.413Z,77.19
2017-09-17T07:58:44.476Z,77.26
2017-09-17T08:01:12.770Z,77.30
2017-09-17T08:03:41.073Z,76.90
2017-09-17T08:06:10.127Z,76.68
2017-09-17T08:08:38.415Z,76.23
2017-09-17T08:11:06.721Z,76.00
2017-09-17T08:13:35.004Z,75.90
2017-09-17T08:16:03.293Z,75.78
2017-09-17T08:18:32.370Z,75.21
2017-09-17T08:21:00.674Z,74.77
2017-09-17T08:23:29.725Z,74.36
2017-09-17T08:25:58.029Z,73.94
2017-09-17T08:28:26.323Z,73.64
2017-09-17T08:30:54.624Z,73.07
2017-09-17T08:33:22.939Z,72.63
2017-09-17T08:35:51.244Z,72.17
2017-09-17T08:38:19.541Z,71.79
2017-09-17T08:40:47.851Z,71.17
2017-09-17T08:43:16.161Z,70.56
2017-09-17T08:45:44.461Z,69.69
2017-09-17T08:48:12.761Z,69.11
2017-09-17T08:50:41.066Z,68.36
2017-09-17T08:53:10.110Z,67.21
2017-09-17T08:55:38.404Z,66.84
2017-09-17T08:58:06.732Z,66.33
2017-09-17T09:00:35.809Z,65.89
2017-09-17T09:03:04.104Z,65.59
2017-09-17T09:05:33.179Z,65.75
2017-09-17T09:08:01.463Z,65.58
2017-09-17T09:10:29.748Z,65.62
2017-09-17T09:12:58.046Z,65.25
2017-09-17T09:15:27.092Z,65.69
2017-09-17T09:17:55.403Z,66.44
2017-09-17T09:20:23.689Z,66.75
2017-09-17T09:22:51.974Z,66.42
2017-09-17T09:25:20.283Z,66.26
2017-09-17T09:27:49.346Z,65.97
2017-09-17T09:30:17.639Z,66.05
2017-09-17T09:32:45.956Z,66.16
2017-09-17T09:35:14.250Z,66.11
2017-09-17T09:37:42.547Z,65.38
2017-09-17T09:40:10.851Z,65.23
2017-09-17T09:42:39.141Z,64.46
2017-09-17T09:45:07.439Z,64.16
2017-09-17T09:47:36.513Z,63.43
2017-09-17T09:50:04.793Z,63.60
2017-09-17T09:52:33.089Z,62.54
2017-09-17T09:55:01.378Z,62.29
2017-09-17T09:57:30.459Z,60.94
2017-09-17T09:59:58.760Z,60.95
2017-09-17T10:02:27.819Z,60.04
2017-09-17T10:04:56.138Z,59.72
2017-09-17T10:07:25.213Z,59.44
2017-09-17T10:09:53.524Z,59.73
2017-09-17T10:12:22.608Z,59.73
2017-09-17T10:14:51.669Z,59.11
2017-09-17T10:17:19.975Z,58.66
2017-09-17T10:19:48.264Z,58.56
2017-09-17T10:22:16.558Z,58.35
2017-09-17T10:24:45.622Z,58.49
2017-09-17T10:27:13.910Z,58.59
2017-09-17T10:29:42.204Z,58.59
2017-09-17T10:32:10.508Z,58.10
2017-09-17T10:34:39.567Z,56.75
2017-09-17T10:37:07.863Z,56.26
2017-09-17T10:39:36.163Z,56.31
2017-09-17T10:42:05.217Z,56.69
2017-09-17T10:44:33.508Z,55.97
2017-09-17T10:47:01.803Z,55.25
2017-09-17T10:49:30.092Z,55.61
2017-09-17T10:51:58.392Z,55.64
2017-09-17T10:54:27.473Z,55.02
2017-09-17T10:56:55.770Z,55.15
2017-09-17T10:59:24.838Z,55.15
2017-09-17T11:01:53.149Z,55.49
2017-09-17T11:04:22.202Z,56.06
2017-09-17T11:06:50.508Z,55.63
2017-09-17T11:09:18.799Z,55.17
2017-09-17T11:11:47.864Z,55.07
2017-09-17T11:14:16.939Z,55.29
2017-09-17T11:16:45.243Z,55.33
2017-09-17T11:19:13.533Z,55.00
2017-09-17T11:21:42.607Z,54.62
2017-09-17T11:24:10.896Z,54.11
2017-09-17T11:26:39.193Z,53.50
2017-09-17T11:29:07.507Z,53.09
2017-09-17T11:31:36.567Z,52.39
2017-09-17T11:34:04.853Z,52.24
2017-09-17T11:36:33.173Z,51.64
2017-09-17T11:39:02.225Z,51.47
2017-09-17T11:41:30.520Z,51.69
2017-09-17T11:43:58.840Z,51.54
2017-09-17T11:46:27.906Z,51.46
2017-09-17T11:48:56.213Z,52.24
2017-09-17T11:51:25.266Z,52.97
2017-09-17T11:53:53.553Z,53.72
2017-09-17T11:56:21.843Z,53.56
2017-09-17T11:58:50.142Z,53.73
2017-09-17T12:01:18.445Z,53.67
2017-09-17T12:03:46.745Z,53.55
2017-09-17T12:06:15.042Z,54.11
2017-09-17T12:08:43.341Z,53.40
2017-09-17T12:11:11.636Z,53.05
2017-09-17T12:13:39.923Z,53.40
2017-09-17T12:16:08.213Z,52.92
2017-09-17T12:18:36.496Z,51.68
2017-09-17T12:21:04.796Z,51.23
2017-09-17T12:23:33.089Z,50.30
2017-09-17T12:26:01.372Z,49.88
2017-09-17T12:28:29.675Z,49.57
2017-09-17T12:30:57.983Z,48.75
2017-09-17T12:33:26.273Z,47.61
2017-09-17T12:35:54.575Z,46.40
2017-09-17T12:38:23.626Z,46.22
2017-09-17T12:40:51.908Z,47.04
2017-09-17T12:43:20.196Z,47.37
2017-09-17T12:45:48.501Z,48.02
2017-09-17T12:48:16.796Z,48.54
2017-09-17T12:50:45.843Z,49.60
2017-09-17T12:53:14.140Z,49.21
2017-09-17T12:55:42.426Z,49.10
2017-09-17T12:58:10.730Z,49.43
2017-09-17T13:00:39.025Z,49.90
2017-09-17T13:03:08.078Z,50.10
2017-09-17T13:05:36.386Z,50.10
2017-09-17T13:08:04.681Z,50.25
2017-09-17T13:10:33.735Z,50.14
2017-09-17T13:13:02.033Z,50.79
2017-09-17T13:15:30.333Z,51.64
2017-09-17T13:17:59.384Z,52.05
2017-09-17T13:20:27.701Z,52.70
2017-09-17T13:22:55.990Z,51.68
2017-09-17T13:25:24.284Z,52.08
2017-09-17T13:27:53.345Z,53.28
2017-09-17T13:30:22.404Z,59.33
2017-09-17T13:32:50.705Z,61.16
2017-09-17T13:35:19.010Z,60.46
2017-09-17T13:37:47.292Z,58.86
2017-09-17T13:40:15.588Z,58.26
2017-09-17T13:42:43.892Z,56.93
2017-09-17T13:45:12.947Z,57.80
2017-09-17T13:47:41.223Z,57.16
2017-09-17T13:50:09.521Z,56.87
2017-09-17T13:52:37.828Z,57.30
2017-09-17T13:55:06.883Z,57.12
2017-09-17T13:57:35.168Z,56.70
2017-09-17T14:00:04.276Z,55.85
2017-09-17T14:02:48.415Z,55.08
2017-09-17T14:05:16.700Z,55.01
2017-09-17T14:10:51.379Z,53.39
2017-09-17T14:13:19.678Z,51.78
2017-09-17T14:15:47.964Z,52.11
2017-09-17T14:18:16.255Z,52.37
2017-09-17T14:20:44.567Z,51.70
2017-09-17T14:23:12.863Z,51.35
2017-09-17T14:25:41.907Z,51.34
2017-09-17T14:28:10.203Z,51.19
2017-09-17T14:30:38.502Z,50.90
2017-09-17T14:33:06.793Z,50.72
2017-09-17T14:35:35.083Z,50.85
2017-09-17T14:38:04.147Z,49.91
2017-09-17T14:40:32.427Z,49.78
2017-09-17T14:43:00.715Z,49.23
2017-09-17T14:45:29.038Z,49.55
2017-09-17T14:47:58.079Z,50.09
2017-09-17T14:50:26.378Z,50.14
2017-09-17T14:52:54.725Z,50.05
2017-09-17T14:55:23.027Z,50.01
2017-09-17T14:57:51.376Z,49.88
2017-09-17T15:00:19.662Z,49.78
2017-09-17T15:02:47.955Z,49.71
2017-09-17T15:05:16.249Z,49.55
2017-09-17T15:07:44.532Z,49.64
2017-09-17T15:10:12.818Z,49.89
2017-09-17T15:12:41.098Z,50.19
2017-09-17T15:15:09.384Z,50.61
2017-09-17T15:17:37.681Z,50.25
2017-09-17T15:20:05.971Z,49.58
2017-09-17T15:22:34.282Z,50.07
2017-09-17T15:25:02.586Z,49.47
2017-09-17T15:27:30.874Z,49.20
2017-09-17T15:29:59.163Z,49.45
2017-09-17T15:32:27.443Z,49.73
2017-09-17T15:34:55.727Z,49.67
2017-09-17T15:37:24.014Z,49.97
2017-09-17T15:39:52.327Z,50.51
2017-09-17T15:42:21.396Z,50.49
2017-09-17T15:44:49.696Z,50.90
2017-09-17T15:47:17.983Z,51.06
2017-09-17T15:49:46.281Z,50.51
2017-09-17T15:52:15.323Z,50.49
2017-09-17T15:54:43.602Z,50.50
2017-09-17T15:57:11.893Z,51.26
2017-09-17T15:59:40.190Z,50.87
2017-09-17T16:02:08.482Z,50.25
2017-09-17T16:04:36.765Z,50.80
2017-09-17T16:07:05.054Z,51.22
2017-09-17T16:09:34.115Z,51.11
2017-09-17T16:12:02.412Z,51.42
2017-09-17T16:14:30.702Z,51.92
2017-09-17T16:16:58.996Z,52.16
2017-09-17T16:19:28.046Z,52.31
2017-09-17T16:21:56.347Z,52.87
2017-09-17T16:24:24.639Z,52.92
2017-09-17T16:26:52.921Z,53.17
2017-09-17T16:29:21.216Z,53.53
2017-09-17T16:31:49.512Z,54.16
2017-09-17T16:34:18.698Z,54.19
2017-09-17T16:36:46.990Z,53.73
2017-09-17T16:39:16.061Z,53.94
2017-09-17T16:41:44.362Z,54.09
2017-09-17T16:44:13.419Z,54.80
2017-09-17T16:46:41.708Z,55.48
2017-09-17T16:49:09.997Z,55.62
2017-09-17T16:51:38.310Z,56.03
2017-09-17T16:54:07.371Z,56.32
2017-09-17T16:56:35.656Z,56.88
2017-09-17T16:59:03.987Z,57.24
2017-09-17T17:01:33.040Z,57.90
2017-09-17T17:04:01.329Z,58.54
2017-09-17T17:06:29.623Z,60.39
2017-09-17T17:08:57.910Z,60.70
2017-09-17T17:11:26.967Z,60.59
2017-09-17T17:13:55.254Z,61.04
2017-09-17T17:16:24.311Z,61.12
2017-09-17T17:18:52.599Z,61.77
2017-09-17T17:21:20.888Z,61.97
2017-09-17T17:23:49.184Z,62.21
2017-09-17T17:26:17.467Z,62.71
2017-09-17T17:28:45.759Z,62.82
2017-09-17T17:31:14.058Z,63.09
2017-09-17T17:33:42.344Z,63.90
2017-09-17T17:36:10.634Z,63.87
2017-09-17T17:38:39.698Z,64.64
2017-09-17T17:41:07.981Z,64.38
2017-09-17T17:43:36.255Z,65.16
2017-09-17T17:46:04.560Z,65.72
2017-09-17T17:48:32.867Z,66.04
2017-09-17T17:51:01.929Z,65.77
2017-09-17T17:53:30.223Z,65.76
2017-09-17T17:55:58.498Z,66.39
2017-09-17T17:58:26.787Z,66.28
2017-09-17T18:00:55.061Z,66.53
2017-09-17T18:03:23.357Z,65.99
2017-09-17T18:05:52.434Z,65.99
2017-09-17T18:08:20.741Z,66.33
2017-09-17T18:10:49.796Z,66.55
2017-09-17T18:13:18.084Z,67.71
2017-09-17T18:15:46.377Z,69.48
2017-09-17T18:18:14.657Z,70.71
2017-09-17T18:20:42.936Z,71.68
2017-09-17T18:23:11.215Z,72.51
2017-09-17T18:25:39.506Z,72.89
2017-09-17T18:28:07.808Z,73.07
2017-09-17T18:30:36.870Z,73.75
2017-09-17T18:33:05.169Z,73.93
2017-09-17T18:35:33.447Z,74.41
2017-09-17T18:38:01.755Z,74.63
2017-09-17T18:40:30.795Z,74.87
2017-09-17T18:42:59.085Z,75.06
2017-09-17T18:45:27.371Z,75.37
2017-09-17T18:47:55.658Z,75.63
2017-09-17T18:50:29.405Z,76.01
2017-09-17T18:52:58.447Z,76.36
2017-09-17T18:55:26.742Z,76.63
2017-09-17T18:57:55.024Z,76.97
2017-09-17T19:00:23.316Z,77.40
2017-09-17T19:02:51.618Z,77.34
2017-09-17T19:05:19.908Z,77.22
2017-09-17T19:07:48.971Z,77.22
2017-09-17T19:10:17.277Z,77.40
2017-09-17T19:12:46.358Z,77.52
2017-09-17T19:15:14.652Z,77.48
2017-09-17T19:17:43.712Z,77.55
2017-09-17T19:20:11.999Z,77.70
2017-09-17T19:22:40.324Z,77.76
2017-09-17T19:25:09.392Z,77.79
2017-09-17T19:27:37.728Z,77.76
2017-09-17T19:30:06.036Z,77.74
2017-09-17T19:32:34.327Z,77.98
2017-09-17T19:35:02.662Z,78.17
2017-09-17T19:37:31.750Z,78.24
2017-09-17T19:40:00.834Z,78.25
2017-09-17T19:42:29.212Z,78.14
2017-09-17T19:44:57.514Z,78.01
2017-09-17T19:47:26.607Z,77.97
2017-09-17T19:49:54.896Z,78.00
2017-09-17T19:52:23.945Z,78.30
2017-09-17T19:54:52.263Z,78.42
2017-09-17T19:57:20.566Z,78.41
2017-09-17T19:59:49.650Z,78.39
2017-09-17T20:02:18.730Z,78.21
2017-09-17T20:04:47.028Z,78.04
2017-09-17T20:07:16.096Z,77.87
2017-09-17T20:09:44.394Z,77.89
2017-09-17T20:12:12.684Z,77.91
2017-09-17T20:14:40.985Z,78.01
2017-09-17T20:17:10.072Z,78.24
2017-09-17T20:19:39.132Z,78.53
2017-09-17T20:22:08.206Z,78.61
2017-09-17T20:24:36.501Z,78.77
2017-09-17T20:27:04.789Z,78.84
2017-09-17T20:29:33.079Z,79.06
2017-09-17T20:32:01.377Z,79.11
2017-09-17T20:34:29.667Z,79.24
2017-09-17T20:36:57.962Z,79.44
2017-09-17T20:39:27.022Z,79.50
2017-09-17T20:41:55.331Z,79.63
2017-09-17T20:44:23.629Z,79.82
2017-09-17T20:46:52.699Z,79.87
2017-09-17T20:49:20.984Z,80.05
2017-09-17T20:51:49.293Z,80.20
2017-09-17T20:54:18.368Z,80.16
2017-09-17T20:56:46.670Z,80.17
2017-09-17T20:59:15.742Z,80.20
2017-09-17T21:01:44.032Z,80.11
2017-09-17T21:04:12.331Z,80.01
2017-09-17T21:06:41.396Z,79.94
2017-09-17T21:09:09.708Z,79.94
2017-09-17T21:11:38.763Z,79.87
2017-09-17T21:14:07.061Z,79.92
2017-09-17T21:16:35.376Z,80.00
2017-09-17T21:19:04.451Z,79.94
2017-09-17T21:21:32.731Z,79.91
2017-09-17T21:24:01.027Z,79.93
2017-09-17T21:26:30.089Z,80.04
2017-09-17T21:28:58.387Z,80.19
2017-09-17T21:31:26.695Z,81.02
2017-09-17T21:33:55.747Z,83.63
2017-09-17T21:36:24.026Z,85.87
2017-09-17T21:38:52.326Z,87.41
2017-09-17T21:41:20.614Z,88.41
2017-09-17T21:43:48.921Z,89.26
2017-09-17T21:46:17.972Z,89.71
2017-09-17T21:48:46.266Z,89.61
2017-09-17T21:51:14.566Z,90.35
2017-09-17T21:53:43.624Z,91.37
2017-09-17T21:56:11.919Z,91.80
2017-09-17T21:58:40.237Z,92.16
2017-09-17T22:01:09.361Z,92.38
2017-09-17T22:03:37.651Z,92.44
2017-09-17T22:06:05.945Z,92.54
2017-09-17T22:08:34.235Z,92.86
2017-09-17T22:11:02.536Z,93.23
2017-09-17T22:13:32.334Z,93.57
2017-09-17T22:16:00.634Z,93.70
2017-09-17T22:18:28.929Z,93.87
2017-09-17T22:20:57.227Z,94.00
2017-09-17T22:23:26.281Z,94.38
2017-09-17T22:25:54.571Z,94.58
2017-09-17T22:28:22.865Z,94.69
2017-09-17T22:30:51.200Z,94.82
2017-09-17T22:33:19.498Z,94.93
2017-09-17T22:35:47.793Z,95.02
2017-09-17T22:38:16.121Z,95.02
2017-09-17T22:40:44.421Z,95.03
2017-09-17T22:43:12.705Z,95.15
2017-09-17T22:45:41.014Z,95.30
2017-09-17T22:48:09.324Z,95.56
2017-09-17T22:50:38.387Z,95.67
2017-09-17T22:53:06.703Z,95.72
2017-09-17T22:55:35.012Z,95.89
2017-09-17T22:58:03.322Z,95.98
2017-09-17T23:00:31.633Z,96.04
2017-09-17T23:02:59.957Z,96.07
2017-09-17T23:05:28.239Z,96.18
2017-09-17T23:07:56.532Z,96.29
2017-09-17T23:10:24.818Z,96.33
2017-09-17T23:12:53.149Z,96.44
2017-09-17T23:15:21.443Z,96.52
2017-09-17T23:17:50.496Z,96.60
2017-09-17T23:20:18.817Z,96.72
2017-09-17T23:22:47.108Z,96.83
2017-09-17T23:25:16.184Z,96.87
2017-09-17T23:27:44.495Z,96.93
2017-09-17T23:30:13.554Z,96.90
2017-09-17T23:32:41.847Z,96.83
2017-09-17T23:35:10.145Z,96.62
2017-09-17T23:37:39.200Z,96.43
2017-09-17T23:40:07.489Z,96.52
2017-09-17T23:42:35.799Z,96.62
2017-09-17T23:45:04.852Z,96.71
2017-09-17T23:47:33.166Z,96.63
2017-09-17T23:50:01.472Z,96.78
2017-09-17T23:52:30.528Z,96.88
2017-09-17T23:54:58.847Z,96.84
2017-09-17T23:57:27.909Z,96.94
2017-09-17T23:59:56.195Z,96.98
